Palm City, Florida
Current Conditions -  °F | °C
As of 6:50 AM on Monday 26 Jan 2015 (Local Time) from KSUA Reporting Station
Broken Clouds Broken Clouds  
Wind Chill: 55°   Ceiling: 10000
Heat Index: 55°   Visibility: 10mi
Dew Point: 52°   Wind: 9mph
Humidity: 88%   Direction: 200°SSW
Pressure: 29.9"   Gusts: NA
Location:  27.16°N, 80.27°W
Report Text: KSUA 261150Z 20008KT 10SM FEW040 BKN100 13/11 A2990
Loading
Personal Weather Stations






























Interactive Weather Map New forecast layout! Learn more

10-Day Weather Forecast

Advertisements
Track Severe Weather on mobile